createdAt,value
2022-08-30T00:02:27.771Z,14.30
2022-08-30T00:04:55.595Z,14.30
2022-08-30T00:07:23.268Z,14.30
2022-08-30T00:09:51.091Z,14.30
2022-08-30T00:12:20.981Z,14.30
2022-08-30T00:14:49.118Z,14.40
2022-08-30T00:17:16.850Z,14.40
2022-08-30T00:19:44.488Z,14.40
2022-08-30T00:22:12.411Z,14.40
2022-08-30T00:24:40.062Z,14.30
2022-08-30T00:27:07.824Z,14.30
2022-08-30T00:29:35.633Z,14.30
2022-08-30T00:32:03.842Z,14.30
2022-08-30T00:34:32.343Z,14.30
2022-08-30T00:37:00.345Z,14.20
2022-08-30T00:39:27.994Z,14.30
2022-08-30T00:41:55.668Z,14.20
2022-08-30T00:44:24.186Z,14.20
2022-08-30T00:46:52.356Z,14.20
2022-08-30T00:49:20.229Z,14.20
2022-08-30T00:51:48.551Z,14.20
2022-08-30T00:54:16.987Z,14.20
2022-08-30T00:56:45.903Z,14.30
2022-08-30T00:59:13.850Z,14.30
2022-08-30T01:01:42.600Z,14.20
2022-08-30T01:04:11.674Z,14.20
2022-08-30T01:06:40.137Z,14.20
2022-08-30T01:09:09.093Z,14.20
2022-08-30T01:11:38.630Z,14.30
2022-08-30T01:14:08.091Z,14.20
2022-08-30T01:16:37.144Z,14.20
2022-08-30T01:19:08.844Z,14.00
2022-08-30T01:21:46.556Z,14.00
2022-08-30T01:24:14.861Z,14.00
2022-08-30T01:26:42.879Z,14.00
2022-08-30T01:29:15.521Z,14.10
2022-08-30T01:31:43.202Z,14.10
2022-08-30T01:34:10.859Z,14.10
2022-08-30T01:36:44.559Z,14.00
2022-08-30T01:39:17.735Z,14.00
2022-08-30T01:41:45.636Z,13.90
2022-08-30T01:44:14.694Z,13.90
2022-08-30T01:46:45.937Z,13.80
2022-08-30T01:49:17.751Z,13.80
2022-08-30T01:52:00.948Z,13.90
2022-08-30T01:54:38.249Z,13.90
2022-08-30T01:57:11.143Z,13.90
2022-08-30T01:59:40.616Z,13.90
2022-08-30T02:02:09.154Z,13.90
2022-08-30T02:04:36.961Z,13.80
2022-08-30T02:07:05.403Z,13.80
2022-08-30T02:09:33.086Z,13.70
2022-08-30T02:12:00.832Z,13.70
2022-08-30T02:14:37.617Z,13.60
2022-08-30T02:17:07.391Z,13.50
2022-08-30T02:19:35.278Z,13.50
2022-08-30T02:22:03.066Z,13.50
2022-08-30T02:24:30.835Z,13.50
2022-08-30T02:26:58.680Z,13.60
2022-08-30T02:29:26.485Z,13.60
2022-08-30T02:31:54.170Z,13.30
2022-08-30T02:34:21.883Z,13.20
2022-08-30T02:36:49.586Z,13.20
2022-08-30T02:39:17.701Z,13.30
2022-08-30T02:41:45.401Z,13.30
2022-08-30T02:44:13.295Z,13.40
2022-08-30T02:46:41.258Z,13.40
2022-08-30T02:49:32.181Z,13.40
2022-08-30T02:51:57.004Z,13.40
2022-08-30T02:54:24.795Z,13.30
2022-08-30T02:56:52.585Z,13.30
2022-08-30T02:59:20.289Z,13.30
2022-08-30T03:01:48.071Z,13.40
2022-08-30T03:04:15.811Z,13.50
2022-08-30T03:06:43.754Z,13.50
2022-08-30T03:09:11.509Z,13.40
2022-08-30T03:11:39.208Z,13.40
2022-08-30T03:14:06.960Z,13.40
2022-08-30T03:16:34.715Z,13.40
2022-08-30T03:19:02.471Z,13.40
2022-08-30T03:21:30.116Z,13.40
2022-08-30T03:23:57.815Z,13.50
2022-08-30T03:26:25.565Z,13.40
2022-08-30T03:28:53.823Z,13.30
2022-08-30T03:31:21.561Z,13.20
2022-08-30T03:33:49.302Z,13.10
2022-08-30T03:36:17.081Z,13.10
2022-08-30T03:38:44.876Z,13.10
2022-08-30T03:41:12.825Z,13.10
2022-08-30T03:43:40.737Z,13.10
2022-08-30T03:46:11.991Z,13.10
2022-08-30T03:48:40.315Z,13.10
2022-08-30T03:51:08.444Z,13.10
2022-08-30T03:53:36.128Z,13.10
2022-08-30T03:56:04.060Z,13.10
2022-08-30T03:58:31.988Z,13.10
2022-08-30T04:00:59.704Z,13.10
2022-08-30T04:03:27.408Z,12.80
2022-08-30T04:05:56.218Z,12.70
2022-08-30T04:08:24.539Z,12.70
2022-08-30T04:10:53.579Z,12.80
2022-08-30T04:13:22.417Z,12.70
2022-08-30T04:15:50.819Z,12.80
2022-08-30T04:18:18.658Z,12.70
2022-08-30T04:20:47.452Z,12.70
2022-08-30T04:23:15.559Z,12.70
2022-08-30T04:25:44.205Z,12.80
2022-08-30T04:28:12.048Z,12.80
2022-08-30T04:30:41.865Z,12.90
2022-08-30T04:33:10.301Z,12.90
2022-08-30T04:35:44.626Z,12.90
2022-08-30T04:38:13.648Z,12.90
2022-08-30T04:40:43.310Z,12.90
2022-08-30T04:43:13.126Z,12.90
2022-08-30T04:45:42.059Z,12.90
2022-08-30T04:48:10.479Z,12.90
2022-08-30T04:50:38.253Z,12.90
2022-08-30T04:53:13.756Z,13.00
2022-08-30T04:55:43.158Z,13.00
2022-08-30T04:58:11.925Z,13.00
2022-08-30T05:00:42.167Z,12.90
2022-08-30T05:03:10.059Z,12.70
2022-08-30T05:05:40.482Z,12.70
2022-08-30T05:08:14.570Z,12.70
2022-08-30T05:10:44.653Z,12.70
2022-08-30T05:13:12.876Z,12.80
2022-08-30T05:15:40.607Z,12.90
2022-08-30T05:18:14.043Z,13.10
2022-08-30T05:20:42.270Z,13.20
2022-08-30T05:23:10.241Z,13.30
2022-08-30T05:25:40.970Z,13.30
2022-08-30T05:28:09.773Z,13.30
2022-08-30T05:30:38.462Z,13.40
2022-08-30T05:33:06.172Z,13.50
2022-08-30T05:35:33.914Z,13.70
2022-08-30T05:38:01.616Z,13.70
2022-08-30T05:40:30.562Z,13.90
2022-08-30T05:42:58.975Z,13.90
2022-08-30T05:45:26.711Z,14.00
2022-08-30T05:47:54.405Z,14.00
2022-08-30T05:50:22.049Z,14.10
2022-08-30T05:52:49.727Z,14.10
2022-08-30T05:55:19.015Z,14.20
2022-08-30T05:57:46.674Z,14.20
2022-08-30T06:00:20.649Z,14.20
2022-08-30T06:02:48.390Z,14.40
2022-08-30T06:05:16.103Z,14.50
2022-08-30T06:07:44.096Z,14.50
2022-08-30T06:10:12.601Z,14.60
2022-08-30T06:12:40.989Z,14.70
2022-08-30T06:15:09.117Z,14.90
2022-08-30T06:17:36.872Z,14.90
2022-08-30T06:20:04.951Z,15.10
2022-08-30T06:22:32.637Z,15.30
2022-08-30T06:25:00.338Z,15.50
2022-08-30T06:27:28.028Z,15.70
2022-08-30T06:29:55.660Z,15.90
2022-08-30T06:32:23.713Z,16.10
2022-08-30T06:34:51.406Z,16.20
2022-08-30T06:37:29.273Z,16.30
2022-08-30T06:39:58.723Z,16.40
2022-08-30T06:42:32.273Z,16.60
2022-08-30T06:45:02.920Z,16.80
2022-08-30T06:47:40.028Z,16.90
2022-08-30T06:50:08.617Z,17.10
2022-08-30T06:52:43.987Z,17.20
2022-08-30T06:55:14.773Z,17.00
2022-08-30T06:57:42.747Z,17.00
2022-08-30T07:15:09.594Z,18.70
2022-08-30T07:23:48.350Z,18.90
2022-08-30T07:27:16.338Z,19.00
2022-08-30T07:30:37.932Z,19.10
2022-08-30T07:33:38.455Z,19.50
2022-08-30T07:36:32.919Z,19.70
2022-08-30T07:39:47.569Z,19.50
2022-08-30T07:42:47.647Z,19.30
2022-08-30T07:45:19.055Z,19.60
2022-08-30T07:48:15.978Z,19.80
2022-08-30T07:50:57.670Z,20.00
2022-08-30T07:53:31.399Z,20.00
2022-08-30T07:56:05.925Z,20.10
2022-08-30T08:06:37.287Z,20.10
2022-08-30T08:13:13.138Z,20.30
2022-08-30T08:15:49.127Z,20.40
2022-08-30T08:18:27.263Z,20.40
2022-08-30T08:22:21.111Z,20.50
2022-08-30T08:25:05.864Z,20.40
2022-08-30T08:27:33.715Z,20.50
2022-08-30T08:30:01.636Z,20.60
2022-08-30T08:32:29.744Z,20.70
2022-08-30T08:34:59.590Z,20.70
2022-08-30T08:37:31.625Z,20.70
2022-08-30T08:44:58.277Z,20.70
2022-08-30T08:48:18.299Z,20.80
2022-08-30T08:51:20.478Z,20.90
2022-08-30T08:54:16.410Z,20.90
2022-08-30T08:57:05.581Z,21.10
2022-08-30T09:04:30.434Z,21.00
2022-08-30T09:11:00.958Z,21.10
2022-08-30T09:15:17.589Z,20.80
2022-08-30T09:25:41.652Z,21.30
2022-08-30T09:28:18.920Z,21.50
2022-08-30T09:32:30.268Z,21.60
2022-08-30T09:43:04.590Z,21.60
2022-08-30T09:45:40.370Z,21.60
2022-08-30T09:48:33.363Z,21.70
2022-08-30T09:51:15.677Z,21.80
2022-08-30T09:54:57.135Z,21.90
2022-08-30T09:57:37.953Z,22.00
2022-08-30T10:00:33.667Z,22.00
2022-08-30T10:03:40.317Z,21.90
2022-08-30T10:06:35.050Z,22.20
2022-08-30T10:09:08.441Z,22.10
2022-08-30T10:11:44.941Z,22.20
2022-08-30T10:14:25.733Z,22.10
2022-08-30T10:17:07.123Z,22.10
2022-08-30T10:19:52.249Z,22.20
2022-08-30T10:22:24.836Z,22.30
2022-08-30T10:25:08.935Z,22.40
2022-08-30T10:27:43.537Z,22.40
2022-08-30T10:30:14.280Z,22.30
2022-08-30T10:32:46.489Z,22.50
2022-08-30T10:35:23.594Z,22.60
2022-08-30T10:38:03.371Z,22.70
2022-08-30T10:40:55.927Z,22.80
2022-08-30T10:43:45.600Z,22.90
2022-08-30T10:46:24.524Z,23.00
2022-08-30T10:48:55.074Z,23.00
2022-08-30T10:51:44.862Z,23.10
2022-08-30T10:54:34.831Z,23.10
2022-08-30T10:57:02.708Z,23.00
2022-08-30T11:04:28.191Z,23.10
2022-08-30T11:07:27.724Z,23.10
2022-08-30T11:10:36.054Z,23.00
2022-08-30T11:13:46.758Z,23.20
2022-08-30T11:16:22.626Z,23.10
2022-08-30T11:18:58.513Z,23.10
2022-08-30T11:21:35.515Z,23.10
2022-08-30T11:24:23.709Z,23.10
2022-08-30T11:27:01.154Z,23.10
2022-08-30T11:33:15.591Z,23.20
2022-08-30T11:36:14.340Z,23.20
2022-08-30T11:38:47.110Z,23.40
2022-08-30T11:41:42.457Z,23.50
2022-08-30T11:44:23.030Z,23.50
2022-08-30T11:46:56.061Z,23.50
2022-08-30T11:50:08.575Z,23.50
2022-08-30T11:53:03.788Z,23.50
2022-08-30T11:55:48.143Z,23.50
2022-08-30T11:58:17.453Z,23.60
2022-08-30T12:00:52.644Z,23.60
2022-08-30T12:03:28.802Z,23.70
2022-08-30T12:06:06.774Z,23.60
2022-08-30T12:08:34.685Z,23.60
2022-08-30T12:11:32.976Z,23.60
2022-08-30T12:14:18.265Z,23.70
2022-08-30T12:17:07.997Z,23.60
2022-08-30T12:19:35.838Z,23.50
2022-08-30T12:22:21.101Z,23.50
2022-08-30T12:24:58.226Z,23.60
2022-08-30T12:27:33.337Z,23.60
2022-08-30T12:30:06.931Z,23.60
2022-08-30T12:32:44.316Z,23.70
2022-08-30T12:35:21.496Z,23.80
2022-08-30T12:38:12.154Z,23.80
2022-08-30T12:40:56.573Z,23.80
2022-08-30T12:43:39.024Z,23.90
2022-08-30T12:46:12.575Z,23.80
2022-08-30T12:48:44.743Z,23.90
2022-08-30T12:51:28.148Z,24.20
2022-08-30T12:54:08.003Z,24.20
2022-08-30T12:56:55.350Z,24.30
2022-08-30T12:59:52.809Z,24.30
2022-08-30T13:02:25.743Z,24.30
2022-08-30T13:04:55.034Z,24.30
2022-08-30T13:07:35.404Z,24.10
2022-08-30T13:10:19.955Z,24.10
2022-08-30T13:13:05.120Z,24.10
2022-08-30T13:15:35.970Z,24.00
2022-08-30T13:18:22.272Z,24.00
2022-08-30T13:21:21.059Z,24.00
2022-08-30T13:24:10.957Z,24.10
2022-08-30T13:26:41.143Z,24.10
2022-08-30T13:29:16.234Z,24.20
2022-08-30T13:31:46.858Z,24.20
2022-08-30T13:34:19.139Z,24.30
2022-08-30T13:36:57.210Z,24.30
2022-08-30T13:39:25.677Z,24.30
2022-08-30T13:41:54.634Z,24.30
2022-08-30T13:44:24.660Z,24.40
2022-08-30T13:47:32.234Z,24.40
2022-08-30T13:49:46.776Z,24.40
2022-08-30T13:52:22.181Z,24.40
2022-08-30T13:54:55.632Z,24.50
2022-08-30T14:00:19.255Z,24.60
2022-08-30T14:02:54.518Z,24.60
2022-08-30T14:11:05.394Z,24.30
2022-08-30T14:13:33.925Z,24.10
2022-08-30T14:18:54.768Z,24.10
2022-08-30T14:21:24.831Z,24.10
2022-08-30T14:23:54.150Z,24.00
2022-08-30T14:26:32.335Z,24.00
2022-08-30T14:29:09.126Z,24.00
2022-08-30T14:31:38.526Z,24.00
2022-08-30T14:34:08.070Z,24.00
2022-08-30T14:36:38.975Z,24.00
2022-08-30T14:39:09.610Z,24.00
2022-08-30T14:41:44.162Z,23.90
2022-08-30T14:44:16.961Z,23.90
2022-08-30T14:46:45.208Z,23.90
2022-08-30T14:49:14.372Z,23.90
2022-08-30T14:51:42.537Z,23.80
2022-08-30T14:54:10.547Z,23.80
2022-08-30T14:56:39.999Z,23.90
2022-08-30T14:59:07.904Z,24.00
2022-08-30T15:01:38.396Z,24.20
2022-08-30T15:04:07.703Z,24.50
2022-08-30T15:06:37.151Z,24.60
2022-08-30T15:09:08.106Z,24.70
2022-08-30T15:11:36.863Z,24.70
2022-08-30T15:14:06.472Z,24.80
2022-08-30T15:16:36.969Z,24.80
2022-08-30T15:19:07.681Z,24.80
2022-08-30T15:21:42.092Z,24.90
2022-08-30T15:24:12.836Z,24.90
2022-08-30T15:26:43.709Z,24.80
2022-08-30T15:29:13.677Z,24.70
2022-08-30T15:31:42.045Z,24.50
2022-08-30T15:34:11.895Z,24.40
2022-08-30T15:36:40.102Z,24.40
2022-08-30T15:39:10.454Z,24.50
2022-08-30T15:41:39.254Z,24.50
2022-08-30T15:44:12.833Z,24.60
2022-08-30T15:46:43.709Z,24.60
2022-08-30T15:49:17.266Z,24.60
2022-08-30T15:51:47.713Z,24.60
2022-08-30T15:54:18.342Z,24.70
2022-08-30T15:56:46.816Z,24.60
2022-08-30T15:59:30.041Z,24.50
2022-08-30T16:01:58.390Z,24.40
2022-08-30T16:04:27.110Z,24.40
2022-08-30T16:06:54.905Z,24.60
2022-08-30T16:09:24.091Z,24.60
2022-08-30T16:11:51.732Z,24.60
2022-08-30T16:14:19.528Z,24.60
2022-08-30T16:16:47.198Z,24.60
2022-08-30T16:19:15.041Z,24.70
2022-08-30T16:21:44.124Z,24.70
2022-08-30T16:24:13.773Z,24.60
2022-08-30T16:26:43.111Z,24.60
2022-08-30T16:29:14.434Z,24.50
2022-08-30T16:31:44.448Z,24.50
2022-08-30T16:34:14.108Z,24.50
2022-08-30T16:36:42.042Z,24.30
2022-08-30T16:39:12.845Z,24.10
2022-08-30T16:41:42.489Z,23.90
2022-08-30T16:44:13.143Z,23.70
2022-08-30T16:46:43.461Z,23.60
2022-08-30T16:49:21.126Z,23.50
2022-08-30T16:51:51.019Z,23.30
2022-08-30T16:54:20.866Z,23.30
2022-08-30T16:56:51.570Z,23.30
2022-08-30T16:59:19.362Z,23.30
2022-08-30T17:01:48.177Z,23.10
2022-08-30T17:04:18.386Z,22.90
2022-08-30T17:06:50.533Z,22.70
2022-08-30T17:09:19.750Z,22.60
2022-08-30T17:11:48.270Z,22.50
2022-08-30T17:14:20.127Z,22.30
2022-08-30T17:16:51.268Z,22.00
2022-08-30T17:19:26.296Z,21.60
2022-08-30T17:21:54.992Z,21.20
2022-08-30T17:24:22.687Z,21.00
2022-08-30T17:26:52.431Z,20.90
2022-08-30T17:29:20.607Z,20.90
2022-08-30T17:31:50.818Z,20.90
2022-08-30T17:34:21.899Z,20.80
2022-08-30T17:36:52.611Z,20.50
2022-08-30T17:39:23.601Z,20.30
2022-08-30T17:41:52.649Z,20.00
2022-08-30T17:44:25.825Z,19.80
2022-08-30T17:46:54.690Z,19.70
2022-08-30T17:49:23.672Z,19.70
2022-08-30T17:51:56.588Z,19.60
2022-08-30T17:54:26.729Z,19.50
2022-08-30T17:56:56.010Z,19.30
2022-08-30T17:59:25.644Z,19.20
2022-08-30T18:01:55.022Z,19.10
2022-08-30T18:04:24.889Z,19.00
2022-08-30T18:06:53.709Z,18.90
2022-08-30T18:09:21.999Z,18.70
2022-08-30T18:11:50.330Z,18.60
2022-08-30T18:14:18.657Z,18.50
2022-08-30T18:16:53.615Z,18.40
2022-08-30T18:19:24.857Z,18.40
2022-08-30T18:21:53.489Z,18.30
2022-08-30T18:24:21.804Z,18.20
2022-08-30T18:26:49.983Z,18.20
2022-08-30T18:29:26.026Z,18.10
2022-08-30T18:32:02.330Z,18.10
2022-08-30T18:34:30.927Z,18.10
2022-08-30T18:36:58.961Z,18.00
2022-08-30T18:39:26.900Z,17.90
2022-08-30T18:41:55.905Z,17.90
2022-08-30T18:44:28.252Z,17.90
2022-08-30T18:46:57.574Z,17.90
2022-08-30T18:49:26.444Z,17.80
2022-08-30T18:51:54.346Z,17.80
2022-08-30T18:54:22.167Z,17.70
2022-08-30T18:56:50.636Z,17.60
2022-08-30T18:59:19.939Z,17.60
2022-08-30T19:01:49.108Z,17.50
2022-08-30T19:04:22.200Z,17.50
2022-08-30T19:06:57.417Z,17.40
2022-08-30T19:09:26.614Z,17.30
2022-08-30T19:11:55.173Z,17.20
2022-08-30T19:14:22.840Z,17.10
2022-08-30T19:16:50.718Z,17.10
2022-08-30T19:19:18.738Z,17.00
2022-08-30T19:21:46.462Z,16.90
2022-08-30T19:24:17.846Z,16.90
2022-08-30T19:26:46.834Z,16.90
2022-08-30T19:29:14.934Z,16.80
2022-08-30T19:31:43.791Z,16.80
2022-08-30T19:34:12.366Z,16.70
2022-08-30T19:36:40.122Z,16.70
2022-08-30T19:39:07.980Z,16.70
2022-08-30T19:41:36.529Z,16.70
2022-08-30T19:44:05.950Z,16.60
